Create Custom Reports and Graphics: Custom Report

Latest Observations

Map

15 Minute Data

Lodi West

Latest Observations

15 Minute Data | America/Los_Angeles
as of 10/14/19 11:49 PM PDT
Station Date Time Temp (°F) Dew Pt (°F) RH (%) Wind Dir (°) Wind Spd (mph) Wind Gust (mph) Latest Rain (In) Daily Rain (In) Daily Min Temp (°F) Daily Max Temp (°F)
Utter - Wilson 10/14/19 2345 46.4   7.0 43.1   0.2 88   21 SSE | 148 2.5   0.5 3.4   1.6 0.00 0.00 36.2   3.8 85.6   2.4
Clarksburg (CLK) 10/14/19 2345 49.7   2.2 43.3   0.6 78   8 NE | 56 0.8   2.2 1.5   3.8 0.00 0.00 35.9   5.0 84.3   0.6
Gorter - Wilson 10/14/19 2345 45.8   6.1 42.1   0.6 87   19 E | 99 0.4   0.9 0.9   2.4 0.00 0.00 32.0   5.5 82.8   0.3
Hood (HOD) 10/14/19 2345 48.5   6.9 42.4   1.0 79   15 ENE | 62 1.4   1.6 2.3   3.8 0.00 0.00 34.6   3.4 81.8   0.1
Courtland-C3 10/14/19 2345 51.5   0.4 44.9   4.6 78   12 SE | 137 1.8   0.6 2.4   0.4 0.00 0.00 36.8   3.7 80.3   0.6
Pacific Fruit 10/14/19 2345 47.9   2.4 42.9   1.9 83   12 SW | 233 0.1   2.7 1.3   3.0 0.00 0.00 40.3   1.5 81.3   1.3
Ryer Island South (RIS) 10/14/19 2345 57.3   1.9 45.7   6.3 65   11 WSW | 242 2.8   0.9 5.9   1.9 0.00 0.00 37.5   1.7 82.2   1.8
Guard Rd (Lodi WSW) 10/14/19 2345 42.9   0.4 41.0   1.8 93   8 ESE | 118 1.3   0.6 1.9   0.4 0.00 0.00 35.0   2.5 83.0   1.0
Claussen 10/14/19 2345 49.9   8.0 39.7   6.0 68   28 NE | 44 0.7   2.7 1.8   5.3 0.00 0.00 43.0   2.2 82.1   0.9
Max     57.3 45.7 93 - 2.8 5.9 0.00 0.00 43.0 85.6
Avg     48.9 42.8 80 - 1.3 2.4 0.00 - - -
Min     42.9 39.7 65 - 0.1 0.9 0.00 0.00 32.0 80.3

Lodi Central

Latest Observations

15 Minute Data | America/Los_Angeles
as of 10/14/19 11:49 PM PDT
Station Date Time Temp (°F) Dew Pt (°F) RH (%) Wind Dir (°) Wind Spd (mph) Wind Gust (mph) Latest Rain (In) Daily Rain (In) Daily Min Temp (°F) Daily Max Temp (°F)
Galt West (GAW) 10/14/19 2345 46.3   1.4 43.8   4.2 91   9 E | 101 1.3   0.9 2.3   0.5 0.00 0.00 36.5   3.7 81.1   0.4
Valley Oak 10/8/19 1530 85.2   4.3 42.7   1.6 22   4 W | 263 3.7   1.1 7.5   2.0 0.00 0.00 42.0   5.0 86.1   4.0
Thornton 10/14/19 2345 45.6   1.6 37.9   1.6 74   9 ENE | 73 0.7   0.1 3.8   0.0 0.00 0.00 36.0   3.1 81.1   2.3
Kost Rd 10/14/19 2345 48.3   1.0 43.1   3.5 82   8 E | 84 1.1   0.7 2.2   0.7 0.00 0.00 36.5   3.6 80.9   0.5
DeVries Road-North 10/14/19 2345 49.9   1.5 45.1   7.3 84   17 ENE | 64 1.5   1.5 2.4   2.4 0.00 0.00 37.9   2.5 82.2   0.4
Lodi (LangeTwins) 10/14/19 2345 46.6   1.5 43.0   5.0 87   19 ESE | 119 0.3   0.3 3.4   0.0 0.00 0.00 37.4   1.3 81.3   0.8
Acampo (ACP) 10/14/19 2345 48.2   2.9 43.7   3.6 84   2 E | 91 2.0   0.8 3.8   0.0 0.00 0.00 36.6   2.2 80.5   0.5
Lodi West (MDW) 10/14/19 2345 50.1   2.7 44.5   4.5 81   19 SE | 127 1.3   0.3 2.6   0.7 0.00 0.00 41.7   0.9 80.7   0.4
Max     50.1 45.1 91 - 2.0 3.8 0.00 0.00 41.7 82.2
Avg     47.9 43.0 83 - 1.2 2.9 0.00 - - -
Min     45.6 37.9 74 - 0.3 2.2 0.00 0.00 36.0 80.5

Latest Observation

19 Stations

15 Minute Data | America/Los_Angeles
as of 10/14/19 11:49 PM PDT
Station Date Time Temp (°F) Dew Pt (°F) RH (%) Wind Spd (mph) Wind Dir (°) Wind Gust (mph) Latest Rain (In) Daily Rain (In) Daily Min Temp (°F) Daily Max Temp (°F)
Borden Hills 10/14/19 2345 50.6   1.2 37.0   1.4 59   5 4.4   0.7 E | 82 6.1   1.4 0.00 0.00 39.3   4.4 84.0   0.4
Collegeville (COL) 10/14/19 2345 47.7   1.0 41.0   3.2 77   11 1.3   0.6 ESE | 103 2.8   0.4 0.00 0.00 39.6   1.2 81.5   1.1
Galt-East (EGT) 10/14/19 2345 52.0   0.8 36.8   0.5 56   1 2.0   0.5 E | 93 3.7   0.9 0.00 0.00 37.4   3.0 80.5   0.8
Escalon (ESL) 10/14/19 2345 50.0   2.4 44.3   4.4 81   18 0.1   0.1 NNE | 13 2.0   0.3 0.00 0.00 43.2   3.8 82.1   0.8
Victor - N (Katusha) 10/14/19 2345 49.0   0.5 42.2   4.9 77   12 0.9   0.1 NE | 41 2.7   0.0 0.00 0.00 40.0   1.2 80.6   0.8
Gilbeau Ranch 10/14/19 2345 48.1   0.3 37.5   1.2 67   4 1.9   0.7 ENE | 65 3.5   0.9 0.00 0.00 35.5   2.6 80.4   0.7
Lodi 9/1/19 2315 68.3   2.1 54.6   2.0 61   8 0.0   0.0 N | 0 0.0   0.6 0.00 0.00 54.3   2.9 96.9   0.2
Linden (LIN) 10/14/19 2345 42.9   0.9 41.8   1.5 96   2 0.0   0.2 N | 0 0.0   2.0 0.00 0.00 35.1   0.3 81.4   0.6
Live Oak (LIV) 10/14/19 2345 46.8   1.6 43.1   2.5 87   12 1.6   0.3 ENE | 63 2.5   1.7 0.00 0.00 38.1   0.2 83.0   0.2
Lockeford (LOC) 10/14/19 2345 46.8   0.2 - 0   0 1.2   1.0 E | 80 3.8   0.8 0.00 0.00 37.4   2.0 80.8   0.1
Lone Oak-L28 10/14/19 2345 43.7   1.4 41.6   0.9 92   2 1.9   0.7 ESE | 120 2.6   0.6 0.00 0.00 35.9   2.2 79.7   0.1
Sheldon (SHL) 10/14/19 2345 47.5   0.1 39.2   3.0 73   8 1.4   1.2 E | 94 3.1   1.3 0.00 0.00 34.8   5.1 82.7   0.8
Sierra Loma-L27 10/14/19 2345 51.7   1.8 36.3   0.6 55   2 2.7   1.6 NNW | 342 5.9   3.5 0.00 0.00 37.9   4.5 82.6   0.0
Simmerhorn (SIM) 10/14/19 2345 52.6   0.0 34.0   0.5 49   1 - - - - - 37.0   3.6 80.4   0.1
Sloughhouse (SLH) 10/14/19 2300 51.6   8.7 - - 0.0   0.0 N | 0 0.0   0.0 0.00 0.00 - -
5 Wells 10/14/19 2345 48.9   0.2 36.6   0.4 62   0 4.2   3.1 E | 94 4.9   2.8 0.00 0.00 37.9   3.3 80.9   0.1
Max     52.6 44.3 96 4.4 - 6.1 0.00 0.00 43.2 84.0
Avg     48.7 39.4 67 1.7 - 3.1 0.00 - - -
Min     42.9 34.0 0 0.0 - 0.0 0.00 0.00 34.8 79.7